Latest Weather Observations for Halls Creek

IDW60801

Issued at 11:33 am WST Saturday 23 September 2017 (issued every 30 minutes, with the page automatically refreshed every 10 minutes)

About weather observations | Map of weather stations | Latest weather observations for WA | Other Formats
Station Details ID: 002079 Name: HALLS CREEK AIRPORT Lat: -18.23 Lon: 127.67 Height: 409.4 m
Data from the previous 72 hours. | See also: Recent months at Halls Creek
Date/Time
WST
Temp
°C
App
Temp
°C
Dew
Point
°C
Rel
Hum
%
Delta-T
°C
Wind Press
QNH
hPa
Press
MSL
hPa
Rain since
9am
mm
Dir  Spd
km/h
Gust
km/h
Spd
kts
Gust
kts
23/11:30am 34.3 28.5 -1.7 10 17.5 WSW 19 32 10 17 1013.7 1011.2 0.0
23/11:00am 34.8 29.6 0.0 11 17.5 WSW 17 30 9 16 1014.1 1011.6 0.0
23/10:30am 34.0 28.1 -0.6 11 17.1 WSW 20 37 11 20 1014.6 1012.1 0.0
23/10:00am 33.9 28.0 -0.7 11 17.1 SW 20 33 11 18 1014.9 1012.4 0.0
23/09:30am 32.4 25.4 -0.6 12 16.2 SW 26 41 14 22 1015.3 1012.8 0.0
23/09:05am 31.9 24.5 -1.0 12 16.0 SW 28 46 15 25 1015.3 1012.8 0.0
23/09:00am 31.9 25.0 0.1 13 15.7 SW 26 41 14 22 1015.3 1012.8 0.0
23/08:30am 31.0 24.1 0.4 14 15.1 SW 26 37 14 20 1015.3 1012.8 0.0
23/08:00am 30.3 24.3 0.8 15 14.6 WSW 22 33 12 18 1015.4 1012.9 0.0
23/07:30am 28.7 23.6 2.8 19 13.1 WSW 19 28 10 15 1015.4 1012.9 0.0
23/07:00am 26.7 22.5 3.9 23 11.6 WSW 15 19 8 10 1015.3 1012.8 0.0
23/06:30am 23.7 20.8 4.6 29 9.7 WSW 9 13 5 7 1015.1 1012.5 0.0
23/06:00am 21.2 17.7 3.4 31 8.7 SW 11 15 6 8 1014.7 1012.2 0.0
23/05:30am 22.7 18.9 3.8 29 9.4 WSW 13 15 7 8 1014.3 1011.8 0.0
23/05:00am 19.4 16.0 4.0 36 7.5 W 11 15 6 8 1014.0 1011.5 0.0
23/04:30am 18.6 16.0 3.3 36 7.3 W 6 7 3 4 1013.9 1011.4 0.0
23/04:00am 19.3 16.6 3.5 35 7.6 SW 7 9 4 5 1013.7 1011.2 0.0
23/03:30am 19.8 17.2 4.3 36 7.6 SW 7 9 4 5 1013.3 1010.8 0.0
23/03:00am 21.6 19.0 3.3 30 8.9 NNW 6 7 3 4 1013.0 1010.4 0.0
23/02:30am 24.4 20.6 3.7 26 10.4 WNW 13 19 7 10 1012.8 1010.2 0.0
23/02:00am 22.5 19.3 5.0 32 8.9 N 11 13 6 7 1012.9 1010.3 0.0
23/01:30am 22.7 20.3 5.2 32 8.9 ENE 7 9 4 5 1012.9 1010.3 0.0
23/01:00am 23.1 20.9 3.6 28 9.7 W 4 7 2 4 1013.0 1010.4 0.0
23/12:30am 24.9 22.0 4.6 27 10.4 WNW 9 11 5 6 1013.1 1010.6 0.0
23/12:00am 23.9 21.1 3.2 26 10.2 WSW 7 11 4 6 1013.2 1010.7 0.0
 
Date/Time
WST
Temp
°C
App
Temp
°C
Dew
Point
°C
Rel
Hum
%
Delta-T
°C
Wind Press
QNH
hPa
Press
MSL
hPa
Rain since
9am
mm
Dir  Spd
km/h
Gust
km/h
Spd
kts
Gust
kts
22/11:30pm 23.8 21.0 3.2 26 10.2 WSW 7 11 4 6 1013.3 1010.8 0.0
22/11:00pm 21.4 17.7 2.6 29 9.0 SW 11 13 6 7 1013.2 1010.7 0.0
22/10:30pm 21.4 18.6 2.2 28 9.2 NNW 6 7 3 4 1013.3 1010.8 0.0
22/10:00pm 22.3 19.9 2.4 27 9.6 NNW 4 7 2 4 1013.2 1010.7 0.0
22/09:30pm 22.3 20.1 1.3 25 9.9 WSW 2 6 1 3 1013.1 1010.6 0.0
22/09:00pm 23.0 20.9 1.4 24 10.3 W 2 9 1 5 1013.2 1010.7 0.0
22/08:30pm 24.1 21.0 1.1 22 11.0 W 7 9 4 5 1013.2 1010.7 0.0
22/08:00pm 24.6 21.5 1.5 22 11.1 WSW 7 13 4 7 1013.0 1010.4 0.0
22/07:30pm 24.5 22.7 1.4 22 11.1 CALM 0 0 0 0 1012.7 1010.1 0.0
22/07:00pm 25.1 23.3 1.3 21 11.5 CALM 0 0 0 0 1012.3 1009.8 0.0
22/06:30pm 26.8 24.6 1.3 19 12.4 NE 2 7 1 4 1012.1 1009.6 0.0
22/06:00pm 29.7 26.1 0.3 15 14.4 N 9 11 5 6 1011.8 1009.3 0.0
22/05:30pm 32.0 28.6 -0.9 12 16.0 NNW 7 9 4 5 1011.4 1008.9 0.0
22/05:00pm 34.3 30.4 -1.7 10 17.6 N 9 13 5 7 1011.2 1008.7 0.0
22/04:30pm 35.9 31.9 -1.9 9 18.5 NW 9 13 5 7 1010.9 1008.4 0.0
22/04:00pm 36.7 32.2 -2.9 8 19.2 NW 11 19 6 10 1010.8 1008.2 0.0
22/03:30pm 36.8 32.7 -2.8 8 19.3 NNE 9 17 5 9 1010.8 1008.2 0.0
22/03:00pm 36.8 32.0 -2.8 8 19.3 ESE 13 17 7 9 1010.8 1008.2 0.0
22/02:30pm 36.6 31.4 -3.0 8 19.2 NE 15 30 8 16 1011.0 1008.5 0.0
22/02:00pm 37.0 32.9 -2.7 8 19.4 NNW 9 17 5 9 1011.1 1008.6 0.0
22/01:30pm 36.2 31.9 -1.7 9 18.7 NE 11 20 6 11 1011.4 1008.9 0.0
22/01:00pm 36.7 31.3 -1.3 9 18.9 NNE 17 28 9 15 1011.8 1009.3 0.0
22/12:30pm 36.6 32.9 0.1 10 18.6 SW 9 17 5 9 1012.3 1009.8 0.0
22/12:00pm 35.5 30.9 -0.8 10 18.1 NE 13 20 7 11 1013.1 1010.6 0.0
22/11:30am 36.1 30.8 -0.3 10 18.3 NE 17 32 9 17 1013.5 1011.0 0.0
22/11:00am 35.4 30.5 1.7 12 17.5 NNW 17 24 9 13 1014.0 1011.5 0.0
22/10:30am 34.9 30.6 1.3 12 17.2 N 13 26 7 14 1014.5 1012.0 0.0
22/10:00am 34.5 30.4 2.1 13 16.8 WNW 13 22 7 12 1014.8 1012.3 0.0
22/09:30am 34.0 30.9 3.7 15 16.1 NNW 9 19 5 10 1015.1 1012.5 0.0
22/09:00am 33.2 29.2 4.9 17 15.2 W 15 20 8 11 1015.2 1012.6 0.0
22/08:30am 32.4 28.8 5.1 18 14.7 WNW 13 19 7 10 1015.3 1012.8 0.0
22/08:00am 30.0 27.2 2.3 17 14.0 N 6 13 3 7 1015.3 1012.8 0.0
22/07:30am 26.4 24.0 2.3 21 11.9 ENE 4 9 2 5 1015.3 1012.8 0.0
22/07:00am 22.5 19.4 1.5 25 10.0 ENE 7 9 4 5 1015.2 1012.6 0.0
22/06:30am 19.4 16.9 1.4 30 8.3 NE 4 9 2 5 1014.9 1012.4 0.0
22/06:00am 16.8 13.8 0.9 34 7.1 NE 6 7 3 4 1014.6 1012.1 0.0
22/05:30am 15.9 13.9 -0.3 33 7.0 CALM 0 0 0 0 1014.2 1011.7 0.0
22/05:00am 17.4 13.2 -0.8 29 7.9 WSW 11 11 6 6 1013.8 1011.3 0.0
22/04:30am 16.4 12.2 -0.8 31 7.4 WSW 11 13 6 7 1013.4 1010.9 0.0
22/04:00am 15.0 11.5 1.2 39 6.1 SW 9 13 5 7 1013.0 1010.4 0.0
22/03:30am 14.7 12.9 0.9 39 6.1 CALM 0 0 0 0 1012.7 1010.1 0.0
22/03:00am 15.6 13.7 0.6 36 6.6 CALM 0 0 0 0 1012.4 1009.9 0.0
22/02:30am 15.6 13.6 0.2 35 6.7 CALM 0 0 0 0 1012.2 1009.7 0.0
22/02:00am 15.6 13.7 0.6 36 6.6 CALM 0 0 0 0 1012.2 1009.7 0.0
22/01:30am 16.3 14.4 0.4 34 7.0 CALM 0 0 0 0 1012.4 1009.9 0.0
22/01:00am 16.5 14.5 0.2 33 7.2 CALM 0 0 0 0 1012.3 1009.8 0.0
22/12:30am 16.6 14.7 0.3 33 7.2 CALM 0 0 0 0 1012.6 1010.0 0.0
22/12:00am 17.0 15.1 0.6 33 7.3 CALM 0 0 0 0 1012.7 1010.1 0.0
 
Date/Time
WST
Temp
°C
App
Temp
°C
Dew
Point
°C
Rel
Hum
%
Delta-T
°C
Wind Press
QNH
hPa
Press
MSL
hPa
Rain since
9am
mm
Dir  Spd
km/h
Gust
km/h
Spd
kts
Gust
kts
21/11:30pm 19.0 15.4 0.6 29 8.3 NE 9 11 5 6 1012.8 1010.2 0.0
21/11:00pm 17.8 15.9 0.5 31 7.8 CALM 0 0 0 0 1012.9 1010.3 0.0
21/10:30pm 18.4 16.4 0.1 29 8.2 CALM 0 0 0 0 1013.2 1010.7 0.0
21/10:00pm 20.0 17.9 -0.6 25 9.2 CALM 0 0 0 0 1013.1 1010.6 0.0
21/09:30pm 19.5 17.5 0.0 27 8.8 CALM 0 6 0 3 1013.4 1010.9 0.0
21/09:00pm 20.6 18.5 -0.7 24 9.5 CALM 0 11 0 6 1013.3 1010.8 0.0
21/08:30pm 20.7 18.6 -1.1 23 9.7 CALM 0 0 0 0 1013.1 1010.6 0.0
21/08:00pm 21.4 19.2 -1.2 22 10.1 CALM 0 0 0 0 1013.0 1010.4 0.0
21/07:30pm 22.4 20.4 -0.3 22 10.4 CALM 0 0 0 0 1012.6 1010.0 0.0
21/07:00pm 23.8 21.6 -1.2 19 11.4 CALM 0 6 0 3 1012.2 1009.7 0.0
21/06:30pm 24.0 20.7 -1.0 19 11.4 N 6 9 3 5 1011.8 1009.3 0.0
21/06:00pm 26.3 24.0 -2.4 15 13.0 CALM 0 0 0 0 1011.6 1009.1 0.0
21/05:30pm 28.9 25.2 -3.3 12 14.7 NNE 7 9 4 5 1011.3 1008.8 0.0
21/05:00pm 33.4 30.8 -5.3 8 17.7 CALM 0 0 0 0 1011.2 1008.7 0.0
21/04:30pm 34.7 30.7 -6.1 7 18.6 NNE 7 11 4 6 1011.0 1008.5 0.0
21/04:00pm 35.2 30.4 -5.7 7 18.8 NNE 11 17 6 9 1011.0 1008.5 0.0
21/03:30pm 35.6 30.9 -5.5 7 19.0 NNE 11 22 6 12 1011.0 1008.5 0.0
21/03:00pm 35.8 31.5 -5.3 7 19.1 NE 9 22 5 12 1011.0 1008.5 0.0
21/02:30pm 35.8 31.6 -7.3 6 19.4 SSE 7 15 4 8 1011.2 1008.7 0.0
21/02:00pm 35.1 30.3 -5.8 7 18.8 NNE 11 19 6 10 1011.6 1009.1 0.0
21/01:30pm 36.1 31.0 -5.1 7 19.2 N 13 22 7 12 1011.8 1009.3 0.0
21/01:00pm 36.4 31.3 -4.9 7 19.4 E 13 28 7 15 1012.2 1009.7 0.0
21/12:30pm 35.7 30.2 -5.4 7 19.0 N 15 24 8 13 1012.8 1010.2 0.0
21/12:00pm 35.2 30.0 -5.7 7 18.8 E 13 20 7 11 1013.4 1010.9 0.0
21/11:30am 35.3 29.8 -5.7 7 18.9 SW 15 22 8 12 1013.9 1011.4 0.0
21/11:00am 34.9 28.6 -4.2 8 18.4 N 20 32 11 17 1014.4 1011.9 0.0
21/10:30am 34.8 28.9 -6.0 7 18.6 NNE 17 26 9 14 1014.9 1012.4 0.0
21/10:00am 33.8 28.3 -5.0 8 17.8 NNE 15 24 8 13 1015.4 1012.9 0.0
21/09:30am 33.4 27.3 -3.7 9 17.4 ENE 19 28 10 15 1015.8 1013.3 0.0
21/09:00am 32.4 27.9 -3.1 10 16.7 NE 11 19 6 10 1016.0 1013.5 0.0
21/08:30am 29.9 25.9 -2.6 12 15.1 NE 9 15 5 8 1016.2 1013.7 0.0
21/08:00am 28.4 24.4 -2.6 13 14.2 NE 9 15 5 8 1016.3 1013.8 0.0
21/07:30am 25.9 23.8 -1.0 17 12.5 CALM 0 0 0 0 1016.3 1013.8 0.0
21/07:00am 22.2 20.2 0.1 23 10.2 CALM 0 0 0 0 1016.2 1013.7 0.0
21/06:30am 17.9 15.9 -0.4 29 8.1 CALM 0 0 0 0 1016.0 1013.5 0.0
21/06:00am 13.7 11.9 1.0 42 5.5 CALM 0 0 0 0 1015.7 1013.2 0.0
21/05:30am 12.6 10.5 -1.0 39 5.6 CALM 0 0 0 0 1015.3 1012.8 0.0
21/05:00am 12.3 9.8 -0.9 40 5.5 SW 2 6 1 3 1014.9 1012.4 0.0
21/04:30am 12.2 8.9 -1.0 40 5.4 SW 6 7 3 4 1014.8 1012.3 0.0
21/04:00am 12.3 10.2 -0.9 40 5.5 CALM 0 0 0 0 1014.6 1012.1 0.0
21/03:30am 13.0 10.9 -1.0 38 5.8 CALM 0 0 0 0 1014.2 1011.7 0.0
21/03:00am 13.4 10.5 -1.0 37 6.0 SE 4 11 2 6 1014.2 1011.7 0.0
21/02:30am 13.7 11.5 -1.5 35 6.3 CALM 0 0 0 0 1013.9 1011.4 0.0
21/02:00am 13.9 11.7 -1.3 35 6.3 CALM 0 0 0 0 1013.9 1011.4 0.0
21/01:30am 14.7 12.5 -1.4 33 6.7 CALM 0 0 0 0 1014.0 1011.5 0.0
21/01:00am 15.4 11.9 -1.2 32 7.0 E 7 28 4 15 1014.2 1011.7 0.0
21/12:30am 16.0 13.4 -1.5 30 7.4 NE 2 6 1 3 1014.2 1011.7 0.0
21/12:00am 16.1 13.9 -1.9 29 7.5 CALM 0 0 0 0 1014.4 1011.9 0.0
 
Date/Time
WST
Temp
°C
App
Temp
°C
Dew
Point
°C
Rel
Hum
%
Delta-T
°C
Wind Press
QNH
hPa
Press
MSL
hPa
Rain since
9am
mm
Dir  Spd
km/h
Gust
km/h
Spd
kts
Gust
kts
20/11:30pm 16.4 13.4 -2.1 28 7.7 WSW 4 7 2 4 1014.6 1012.1 0.0
20/11:00pm 17.5 14.1 -2.2 26 8.3 SW 6 9 3 5 1014.6 1012.1 0.0
20/10:30pm 17.5 13.9 -2.2 26 8.3 SW 7 7 4 4 1014.7 1012.2 0.0
20/10:00pm 17.4 15.1 -2.3 26 8.3 CALM 0 0 0 0 1014.6 1012.1 0.0
20/09:30pm 17.9 15.6 -2.4 25 8.6 CALM 0 0 0 0 1014.6 1012.1 0.0
20/09:00pm 19.4 17.1 -2.2 23 9.3 CALM 0 0 0 0 1014.8 1012.3 0.0
20/08:30pm 19.1 16.9 -1.9 24 9.1 CALM 0 0 0 0 1014.7 1012.2 0.0
20/08:00pm 19.8 17.5 -2.5 22 9.6 CALM 0 0 0 0 1014.6 1012.1 0.0
20/07:30pm 20.6 18.2 -3.1 20 10.1 CALM 0 0 0 0 1014.3 1011.8 0.0
20/07:00pm 21.8 19.4 -2.8 19 10.7 CALM 0 0 0 0 1014.1 1011.6 0.0
20/06:30pm 23.4 20.6 -3.0 17 11.6 SE 2 6 1 3 1013.8 1011.3 0.0
20/06:00pm 26.1 22.1 -5.5 12 13.5 N 7 9 4 5 1013.5 1011.0 0.0
20/05:30pm 29.4 25.3 -6.7 9 15.6 NNE 7 11 4 6 1013.2 1010.7 0.0
20/05:00pm 31.9 27.8 -6.4 8 17.0 NNE 7 9 4 5 1012.9 1010.3 0.0
20/04:30pm 33.5 29.0 -7.0 7 18.0 NNE 9 17 5 9 1012.7 1010.1 0.0
20/04:00pm 34.1 27.9 -8.5 6 18.6 ENE 17 28 9 15 1012.7 1010.1 0.0
20/03:30pm 34.4 29.4 -8.3 6 18.7 ENE 11 17 6 9 1012.7 1010.1 0.0
20/03:00pm 34.4 29.2 -6.3 7 18.4 N 13 20 7 11 1012.8 1010.2 0.0
20/02:30pm 34.0 29.1 -6.6 7 18.2 ENE 11 22 6 12 1013.2 1010.7 0.0
20/02:00pm 34.6 28.5 -8.2 6 18.8 NE 17 32 9 17 1013.6 1011.1 0.0
20/01:30pm 34.2 28.0 -8.5 6 18.6 E 17 33 9 18 1014.0 1011.5 0.0
20/01:00pm 35.0 29.4 -5.9 7 18.7 NE 15 32 8 17 1014.4 1011.9 0.0
20/12:30pm 34.4 28.4 -6.3 7 18.4 ENE 17 26 9 14 1014.9 1012.4 0.0
20/12:00pm 34.1 28.9 -6.5 7 18.2 NNE 13 24 7 13 1015.5 1013.0 0.0

Other Formats:

Comma delimited format used in spreadsheet applications
http://www.bom.gov.au/fwo/IDW60801/IDW60801.94212.axf

JavaScript Object Notation format (JSON) in row-major order
http://www.bom.gov.au/fwo/IDW60801/IDW60801.94212.json